sensor_id;sensor_type;location;lat;lon;timestamp;P1;durP1;ratioP1;P2;durP2;ratioP2
25915;SDS011;13719;48.188;11.618;2024-03-17T00:02:15;1.40;;;1.20;;
25915;SDS011;13719;48.188;11.618;2024-03-17T00:04:41;2.25;;;1.52;;
25915;SDS011;13719;48.188;11.618;2024-03-17T00:07:10;1.80;;;1.60;;
25915;SDS011;13719;48.188;11.618;2024-03-17T00:09:36;1.42;;;1.27;;
25915;SDS011;13719;48.188;11.618;2024-03-17T00:12:04;4.68;;;1.30;;
25915;SDS011;13719;48.188;11.618;2024-03-17T00:14:31;2.00;;;1.40;;
25915;SDS011;13719;48.188;11.618;2024-03-17T00:16:59;1.40;;;1.30;;
25915;SDS011;13719;48.188;11.618;2024-03-17T00:19:26;3.42;;;1.40;;
25915;SDS011;13719;48.188;11.618;2024-03-17T00:21:54;1.55;;;1.45;;
25915;SDS011;13719;48.188;11.618;2024-03-17T00:24:21;2.28;;;1.40;;
25915;SDS011;13719;48.188;11.618;2024-03-17T00:26:49;2.08;;;1.55;;
25915;SDS011;13719;48.188;11.618;2024-03-17T00:29:15;1.60;;;1.20;;
25915;SDS011;13719;48.188;11.618;2024-03-17T00:31:43;1.88;;;1.40;;
25915;SDS011;13719;48.188;11.618;2024-03-17T00:34:09;1.70;;;1.33;;
25915;SDS011;13719;48.188;11.618;2024-03-17T00:36:37;1.83;;;1.30;;
25915;SDS011;13719;48.188;11.618;2024-03-17T00:39:03;3.13;;;1.33;;
25915;SDS011;13719;48.188;11.618;2024-03-17T00:41:32;1.80;;;1.30;;
25915;SDS011;13719;48.188;11.618;2024-03-17T00:43:59;2.08;;;1.35;;
25915;SDS011;13719;48.188;11.618;2024-03-17T00:46:28;1.17;;;1.02;;
25915;SDS011;13719;48.188;11.618;2024-03-17T00:48:54;1.30;;;1.17;;
25915;SDS011;13719;48.188;11.618;2024-03-17T00:51:22;1.77;;;1.40;;
25915;SDS011;13719;48.188;11.618;2024-03-17T00:53:48;1.55;;;1.25;;
25915;SDS011;13719;48.188;11.618;2024-03-17T00:56:16;2.05;;;1.27;;
25915;SDS011;13719;48.188;11.618;2024-03-17T00:58:44;1.42;;;1.30;;
25915;SDS011;13719;48.188;11.618;2024-03-17T01:01:12;3.15;;;1.48;;
25915;SDS011;13719;48.188;11.618;2024-03-17T01:03:39;1.63;;;1.50;;
25915;SDS011;13719;48.188;11.618;2024-03-17T01:06:07;2.90;;;1.55;;
25915;SDS011;13719;48.188;11.618;2024-03-17T01:08:34;1.60;;;1.27;;
25915;SDS011;13719;48.188;11.618;2024-03-17T01:11:01;1.90;;;1.20;;
25915;SDS011;13719;48.188;11.618;2024-03-17T01:13:28;1.67;;;1.40;;
25915;SDS011;13719;48.188;11.618;2024-03-17T01:15:57;1.65;;;1.30;;
25915;SDS011;13719;48.188;11.618;2024-03-17T01:18:24;3.90;;;1.50;;
25915;SDS011;13719;48.188;11.618;2024-03-17T01:20:51;2.30;;;1.33;;
25915;SDS011;13719;48.188;11.618;2024-03-17T01:23:18;1.40;;;1.30;;
25915;SDS011;13719;48.188;11.618;2024-03-17T01:25:45;1.30;;;1.20;;
25915;SDS011;13719;48.188;11.618;2024-03-17T01:28:11;2.40;;;1.30;;
25915;SDS011;13719;48.188;11.618;2024-03-17T01:30:39;1.27;;;1.17;;
25915;SDS011;13719;48.188;11.618;2024-03-17T01:33:07;3.45;;;1.25;;
25915;SDS011;13719;48.188;11.618;2024-03-17T01:35:35;1.70;;;1.40;;
25915;SDS011;13719;48.188;11.618;2024-03-17T01:38:02;1.35;;;1.23;;
25915;SDS011;13719;48.188;11.618;2024-03-17T01:40:29;1.55;;;1.20;;
25915;SDS011;13719;48.188;11.618;2024-03-17T01:42:56;1.30;;;1.20;;
25915;SDS011;13719;48.188;11.618;2024-03-17T01:45:25;1.65;;;1.20;;
25915;SDS011;13719;48.188;11.618;2024-03-17T01:47:51;2.00;;;1.20;;
25915;SDS011;13719;48.188;11.618;2024-03-17T01:50:20;1.20;;;1.10;;
25915;SDS011;13719;48.188;11.618;2024-03-17T01:52:50;1.52;;;1.20;;
25915;SDS011;13719;48.188;11.618;2024-03-17T01:55:18;1.40;;;1.02;;
25915;SDS011;13719;48.188;11.618;2024-03-17T01:57:44;1.45;;;1.30;;
25915;SDS011;13719;48.188;11.618;2024-03-17T02:00:12;1.20;;;1.10;;
25915;SDS011;13719;48.188;11.618;2024-03-17T02:02:39;2.15;;;1.27;;
25915;SDS011;13719;48.188;11.618;2024-03-17T02:05:07;1.20;;;0.95;;
25915;SDS011;13719;48.188;11.618;2024-03-17T02:07:35;1.67;;;0.90;;
25915;SDS011;13719;48.188;11.618;2024-03-17T02:10:03;1.55;;;1.27;;
25915;SDS011;13719;48.188;11.618;2024-03-17T02:12:30;1.20;;;1.10;;
25915;SDS011;13719;48.188;11.618;2024-03-17T02:14:58;0.90;;;0.90;;
25915;SDS011;13719;48.188;11.618;2024-03-17T02:17:24;1.48;;;1.20;;
25915;SDS011;13719;48.188;11.618;2024-03-17T02:19:52;1.58;;;1.20;;
25915;SDS011;13719;48.188;11.618;2024-03-17T02:22:20;1.63;;;1.35;;
25915;SDS011;13719;48.188;11.618;2024-03-17T02:24:47;1.48;;;1.08;;
25915;SDS011;13719;48.188;11.618;2024-03-17T02:27:14;1.92;;;1.17;;
25915;SDS011;13719;48.188;11.618;2024-03-17T02:29:41;1.30;;;1.20;;
25915;SDS011;13719;48.188;11.618;2024-03-17T02:32:08;1.45;;;1.25;;
25915;SDS011;13719;48.188;11.618;2024-03-17T02:34:37;1.20;;;1.10;;
25915;SDS011;13719;48.188;11.618;2024-03-17T02:37:04;1.40;;;1.00;;
25915;SDS011;13719;48.188;11.618;2024-03-17T02:39:34;1.60;;;1.30;;
25915;SDS011;13719;48.188;11.618;2024-03-17T02:42:01;1.10;;;0.98;;
25915;SDS011;13719;48.188;11.618;2024-03-17T02:44:29;2.45;;;1.38;;
25915;SDS011;13719;48.188;11.618;2024-03-17T02:46:56;1.30;;;1.20;;
25915;SDS011;13719;48.188;11.618;2024-03-17T02:49:24;1.20;;;1.00;;
25915;SDS011;13719;48.188;11.618;2024-03-17T02:51:52;1.55;;;1.10;;
25915;SDS011;13719;48.188;11.618;2024-03-17T02:54:20;1.55;;;1.10;;
25915;SDS011;13719;48.188;11.618;2024-03-17T02:56:49;1.70;;;1.13;;
25915;SDS011;13719;48.188;11.618;2024-03-17T02:59:16;3.22;;;1.35;;
25915;SDS011;13719;48.188;11.618;2024-03-17T03:01:44;1.50;;;1.00;;
25915;SDS011;13719;48.188;11.618;2024-03-17T03:04:11;1.20;;;1.10;;
25915;SDS011;13719;48.188;11.618;2024-03-17T03:06:38;3.38;;;1.30;;
25915;SDS011;13719;48.188;11.618;2024-03-17T03:09:06;1.35;;;1.20;;
25915;SDS011;13719;48.188;11.618;2024-03-17T03:11:39;2.53;;;1.40;;
25915;SDS011;13719;48.188;11.618;2024-03-17T03:14:07;1.50;;;1.40;;
25915;SDS011;13719;48.188;11.618;2024-03-17T03:16:35;2.30;;;1.58;;
25915;SDS011;13719;48.188;11.618;2024-03-17T03:19:02;2.50;;;1.50;;
25915;SDS011;13719;48.188;11.618;2024-03-17T03:21:30;1.98;;;1.60;;
25915;SDS011;13719;48.188;11.618;2024-03-17T03:23:57;1.55;;;1.40;;
25915;SDS011;13719;48.188;11.618;2024-03-17T03:26:25;1.60;;;1.50;;
25915;SDS011;13719;48.188;11.618;2024-03-17T03:28:53;1.55;;;1.40;;
25915;SDS011;13719;48.188;11.618;2024-03-17T03:31:23;2.75;;;1.20;;
25915;SDS011;13719;48.188;11.618;2024-03-17T03:33:50;2.38;;;1.25;;
25915;SDS011;13719;48.188;11.618;2024-03-17T03:36:17;1.95;;;1.60;;
25915;SDS011;13719;48.188;11.618;2024-03-17T03:38:46;2.20;;;1.45;;
25915;SDS011;13719;48.188;11.618;2024-03-17T03:41:14;2.28;;;1.50;;
25915;SDS011;13719;48.188;11.618;2024-03-17T03:43:41;1.65;;;1.38;;
25915;SDS011;13719;48.188;11.618;2024-03-17T03:46:11;2.10;;;1.55;;
25915;SDS011;13719;48.188;11.618;2024-03-17T03:48:40;2.42;;;1.48;;
25915;SDS011;13719;48.188;11.618;2024-03-17T03:51:08;1.95;;;1.30;;
25915;SDS011;13719;48.188;11.618;2024-03-17T03:53:36;3.05;;;1.42;;
25915;SDS011;13719;48.188;11.618;2024-03-17T03:56:04;1.73;;;1.63;;
25915;SDS011;13719;48.188;11.618;2024-03-17T03:58:32;1.58;;;1.40;;
25915;SDS011;13719;48.188;11.618;2024-03-17T04:01:00;2.08;;;1.50;;
25915;SDS011;13719;48.188;11.618;2024-03-17T04:03:27;3.88;;;1.67;;
25915;SDS011;13719;48.188;11.618;2024-03-17T04:06:01;2.65;;;1.20;;
25915;SDS011;13719;48.188;11.618;2024-03-17T04:08:29;1.77;;;1.40;;
25915;SDS011;13719;48.188;11.618;2024-03-17T04:10:57;3.03;;;1.40;;
25915;SDS011;13719;48.188;11.618;2024-03-17T04:13:26;1.52;;;1.30;;
25915;SDS011;13719;48.188;11.618;2024-03-17T04:15:54;1.20;;;1.10;;
25915;SDS011;13719;48.188;11.618;2024-03-17T04:18:22;1.50;;;1.40;;
25915;SDS011;13719;48.188;11.618;2024-03-17T04:20:51;2.10;;;1.50;;
25915;SDS011;13719;48.188;11.618;2024-03-17T04:23:20;2.03;;;1.60;;
25915;SDS011;13719;48.188;11.618;2024-03-17T04:25:49;2.13;;;1.45;;
25915;SDS011;13719;48.188;11.618;2024-03-17T04:28:17;1.35;;;1.25;;
25915;SDS011;13719;48.188;11.618;2024-03-17T04:30:44;3.15;;;1.60;;
25915;SDS011;13719;48.188;11.618;2024-03-17T04:33:13;2.78;;;1.30;;
25915;SDS011;13719;48.188;11.618;2024-03-17T04:35:42;1.88;;;1.60;;
25915;SDS011;13719;48.188;11.618;2024-03-17T04:38:09;2.33;;;1.52;;
25915;SDS011;13719;48.188;11.618;2024-03-17T04:40:41;2.58;;;1.35;;
25915;SDS011;13719;48.188;11.618;2024-03-17T04:43:08;2.10;;;1.48;;
25915;SDS011;13719;48.188;11.618;2024-03-17T04:45:36;3.35;;;1.60;;
25915;SDS011;13719;48.188;11.618;2024-03-17T04:48:03;2.67;;;1.70;;
25915;SDS011;13719;48.188;11.618;2024-03-17T04:50:31;1.80;;;1.60;;
25915;SDS011;13719;48.188;11.618;2024-03-17T04:52:58;2.60;;;1.90;;
25915;SDS011;13719;48.188;11.618;2024-03-17T04:55:25;1.92;;;1.50;;
25915;SDS011;13719;48.188;11.618;2024-03-17T04:57:55;2.30;;;1.80;;
25915;SDS011;13719;48.188;11.618;2024-03-17T05:00:22;2.40;;;1.55;;
25915;SDS011;13719;48.188;11.618;2024-03-17T05:02:50;2.00;;;1.77;;
25915;SDS011;13719;48.188;11.618;2024-03-17T05:05:19;2.90;;;1.90;;
25915;SDS011;13719;48.188;11.618;2024-03-17T05:07:49;1.92;;;1.52;;
25915;SDS011;13719;48.188;11.618;2024-03-17T05:10:16;2.17;;;1.85;;
25915;SDS011;13719;48.188;11.618;2024-03-17T05:12:44;1.77;;;1.42;;
25915;SDS011;13719;48.188;11.618;2024-03-17T05:15:14;1.75;;;1.45;;
25915;SDS011;13719;48.188;11.618;2024-03-17T05:17:42;3.03;;;1.65;;
25915;SDS011;13719;48.188;11.618;2024-03-17T05:20:09;2.17;;;1.80;;
25915;SDS011;13719;48.188;11.618;2024-03-17T05:22:38;2.53;;;1.63;;
25915;SDS011;13719;48.188;11.618;2024-03-17T05:25:06;2.90;;;1.75;;
25915;SDS011;13719;48.188;11.618;2024-03-17T05:27:33;2.20;;;1.50;;
25915;SDS011;13719;48.188;11.618;2024-03-17T05:30:01;1.88;;;1.60;;
25915;SDS011;13719;48.188;11.618;2024-03-17T05:32:31;2.55;;;1.73;;
25915;SDS011;13719;48.188;11.618;2024-03-17T05:34:58;1.98;;;1.67;;
25915;SDS011;13719;48.188;11.618;2024-03-17T05:37:26;2.03;;;1.60;;
25915;SDS011;13719;48.188;11.618;2024-03-17T05:39:53;4.47;;;1.88;;
25915;SDS011;13719;48.188;11.618;2024-03-17T05:42:21;2.50;;;1.65;;
25915;SDS011;13719;48.188;11.618;2024-03-17T05:44:48;2.97;;;1.92;;
25915;SDS011;13719;48.188;11.618;2024-03-17T05:47:16;2.05;;;1.48;;
25915;SDS011;13719;48.188;11.618;2024-03-17T05:49:46;2.80;;;1.75;;
25915;SDS011;13719;48.188;11.618;2024-03-17T05:52:13;3.63;;;1.90;;
25915;SDS011;13719;48.188;11.618;2024-03-17T05:54:40;2.83;;;1.92;;
25915;SDS011;13719;48.188;11.618;2024-03-17T05:57:08;2.65;;;1.80;;
25915;SDS011;13719;48.188;11.618;2024-03-17T05:59:37;2.67;;;1.98;;
25915;SDS011;13719;48.188;11.618;2024-03-17T06:02:05;2.45;;;2.00;;
25915;SDS011;13719;48.188;11.618;2024-03-17T06:04:35;3.38;;;1.88;;
25915;SDS011;13719;48.188;11.618;2024-03-17T06:07:05;1.95;;;1.55;;
25915;SDS011;13719;48.188;11.618;2024-03-17T06:09:32;3.20;;;1.73;;
25915;SDS011;13719;48.188;11.618;2024-03-17T06:11:59;4.75;;;1.90;;
25915;SDS011;13719;48.188;11.618;2024-03-17T06:14:26;2.35;;;1.60;;
25915;SDS011;13719;48.188;11.618;2024-03-17T06:16:53;1.70;;;1.60;;
25915;SDS011;13719;48.188;11.618;2024-03-17T06:19:21;2.15;;;1.58;;
25915;SDS011;13719;48.188;11.618;2024-03-17T06:21:48;2.55;;;1.80;;
25915;SDS011;13719;48.188;11.618;2024-03-17T06:24:18;2.05;;;1.67;;
25915;SDS011;13719;48.188;11.618;2024-03-17T06:26:45;2.53;;;1.80;;
25915;SDS011;13719;48.188;11.618;2024-03-17T06:29:14;2.13;;;1.65;;
25915;SDS011;13719;48.188;11.618;2024-03-17T06:31:41;3.38;;;1.95;;
25915;SDS011;13719;48.188;11.618;2024-03-17T06:34:10;3.10;;;1.95;;
25915;SDS011;13719;48.188;11.618;2024-03-17T06:36:40;5.40;;;2.20;;
25915;SDS011;13719;48.188;11.618;2024-03-17T06:39:08;2.63;;;1.90;;
25915;SDS011;13719;48.188;11.618;2024-03-17T06:41:37;2.40;;;2.00;;
25915;SDS011;13719;48.188;11.618;2024-03-17T06:44:04;2.92;;;2.13;;
25915;SDS011;13719;48.188;11.618;2024-03-17T06:46:32;2.47;;;1.73;;
25915;SDS011;13719;48.188;11.618;2024-03-17T06:48:59;3.53;;;2.30;;
25915;SDS011;13719;48.188;11.618;2024-03-17T06:51:26;2.35;;;1.67;;
25915;SDS011;13719;48.188;11.618;2024-03-17T06:53:54;2.67;;;1.88;;
25915;SDS011;13719;48.188;11.618;2024-03-17T06:56:21;3.90;;;2.50;;
25915;SDS011;13719;48.188;11.618;2024-03-17T06:58:51;3.53;;;2.28;;
25915;SDS011;13719;48.188;11.618;2024-03-17T07:01:19;4.30;;;2.35;;
25915;SDS011;13719;48.188;11.618;2024-03-17T07:03:46;5.45;;;2.40;;
25915;SDS011;13719;48.188;11.618;2024-03-17T07:06:13;3.15;;;2.50;;
25915;SDS011;13719;48.188;11.618;2024-03-17T07:08:41;4.63;;;2.45;;
25915;SDS011;13719;48.188;11.618;2024-03-17T07:11:08;2.72;;;1.58;;
25915;SDS011;13719;48.188;11.618;2024-03-17T07:13:36;2.63;;;2.17;;
25915;SDS011;13719;48.188;11.618;2024-03-17T07:16:05;4.38;;;2.38;;
25915;SDS011;13719;48.188;11.618;2024-03-17T07:18:33;3.00;;;2.42;;
25915;SDS011;13719;48.188;11.618;2024-03-17T07:21:01;2.78;;;2.00;;
25915;SDS011;13719;48.188;11.618;2024-03-17T07:23:29;3.45;;;2.30;;
25915;SDS011;13719;48.188;11.618;2024-03-17T07:25:58;3.15;;;2.30;;
25915;SDS011;13719;48.188;11.618;2024-03-17T07:28:26;3.30;;;2.60;;
25915;SDS011;13719;48.188;11.618;2024-03-17T07:30:54;3.60;;;2.28;;
25915;SDS011;13719;48.188;11.618;2024-03-17T07:33:23;3.13;;;2.25;;
25915;SDS011;13719;48.188;11.618;2024-03-17T07:35:51;4.15;;;2.70;;
25915;SDS011;13719;48.188;11.618;2024-03-17T07:38:20;3.67;;;2.28;;
25915;SDS011;13719;48.188;11.618;2024-03-17T07:40:55;4.40;;;2.13;;
25915;SDS011;13719;48.188;11.618;2024-03-17T07:43:23;4.38;;;2.72;;
25915;SDS011;13719;48.188;11.618;2024-03-17T07:45:58;3.10;;;2.42;;
25915;SDS011;13719;48.188;11.618;2024-03-17T07:48:27;3.30;;;2.28;;
25915;SDS011;13719;48.188;11.618;2024-03-17T07:50:55;3.28;;;2.20;;
25915;SDS011;13719;48.188;11.618;2024-03-17T07:53:22;3.28;;;2.20;;
25915;SDS011;13719;48.188;11.618;2024-03-17T07:55:58;2.03;;;1.67;;
25915;SDS011;13719;48.188;11.618;2024-03-17T07:58:26;4.23;;;2.30;;
25915;SDS011;13719;48.188;11.618;2024-03-17T08:00:56;2.40;;;2.10;;
25915;SDS011;13719;48.188;11.618;2024-03-17T08:03:27;2.45;;;1.65;;
25915;SDS011;13719;48.188;11.618;2024-03-17T08:05:55;2.60;;;2.13;;
25915;SDS011;13719;48.188;11.618;2024-03-17T08:08:22;2.20;;;1.67;;
25915;SDS011;13719;48.188;11.618;2024-03-17T08:10:50;2.83;;;1.85;;
25915;SDS011;13719;48.188;11.618;2024-03-17T08:13:18;2.45;;;2.00;;
25915;SDS011;13719;48.188;11.618;2024-03-17T08:15:45;3.17;;;1.98;;
25915;SDS011;13719;48.188;11.618;2024-03-17T08:18:12;4.07;;;2.60;;
25915;SDS011;13719;48.188;11.618;2024-03-17T08:20:41;4.82;;;1.60;;
25915;SDS011;13719;48.188;11.618;2024-03-17T08:23:09;2.33;;;1.80;;
25915;SDS011;13719;48.188;11.618;2024-03-17T08:25:37;2.88;;;2.00;;
25915;SDS011;13719;48.188;11.618;2024-03-17T08:28:04;3.22;;;2.20;;
25915;SDS011;13719;48.188;11.618;2024-03-17T08:30:32;3.60;;;1.88;;
25915;SDS011;13719;48.188;11.618;2024-03-17T08:32:59;2.17;;;1.70;;
25915;SDS011;13719;48.188;11.618;2024-03-17T08:35:27;2.45;;;1.80;;
25915;SDS011;13719;48.188;11.618;2024-03-17T08:37:56;2.67;;;1.95;;
25915;SDS011;13719;48.188;11.618;2024-03-17T08:40:25;3.22;;;1.90;;
25915;SDS011;13719;48.188;11.618;2024-03-17T08:42:52;3.20;;;1.83;;
25915;SDS011;13719;48.188;11.618;2024-03-17T08:45:20;4.13;;;1.85;;
25915;SDS011;13719;48.188;11.618;2024-03-17T08:47:50;2.20;;;1.83;;
25915;SDS011;13719;48.188;11.618;2024-03-17T08:50:18;2.72;;;2.00;;
25915;SDS011;13719;48.188;11.618;2024-03-17T08:52:46;1.90;;;1.60;;
25915;SDS011;13719;48.188;11.618;2024-03-17T08:55:15;2.83;;;2.13;;
25915;SDS011;13719;48.188;11.618;2024-03-17T08:57:42;2.05;;;1.85;;
25915;SDS011;13719;48.188;11.618;2024-03-17T09:00:10;2.25;;;1.58;;
25915;SDS011;13719;48.188;11.618;2024-03-17T09:02:37;3.45;;;1.90;;
25915;SDS011;13719;48.188;11.618;2024-03-17T09:05:06;2.47;;;1.98;;
25915;SDS011;13719;48.188;11.618;2024-03-17T09:07:34;2.92;;;1.95;;
25915;SDS011;13719;48.188;11.618;2024-03-17T09:10:01;2.28;;;1.90;;
25915;SDS011;13719;48.188;11.618;2024-03-17T09:12:30;2.13;;;1.75;;
25915;SDS011;13719;48.188;11.618;2024-03-17T09:14:58;3.70;;;1.98;;
25915;SDS011;13719;48.188;11.618;2024-03-17T09:17:25;2.13;;;1.70;;
25915;SDS011;13719;48.188;11.618;2024-03-17T09:19:53;4.30;;;1.92;;
25915;SDS011;13719;48.188;11.618;2024-03-17T09:22:20;1.88;;;1.45;;
25915;SDS011;13719;48.188;11.618;2024-03-17T09:24:47;1.60;;;1.33;;
25915;SDS011;13719;48.188;11.618;2024-03-17T09:27:15;1.80;;;1.38;;
25915;SDS011;13719;48.188;11.618;2024-03-17T09:29:47;2.03;;;1.65;;
25915;SDS011;13719;48.188;11.618;2024-03-17T09:32:14;1.52;;;1.35;;
25915;SDS011;13719;48.188;11.618;2024-03-17T09:34:43;1.55;;;1.33;;
25915;SDS011;13719;48.188;11.618;2024-03-17T09:37:14;2.42;;;1.75;;
25915;SDS011;13719;48.188;11.618;2024-03-17T09:39:42;2.80;;;1.80;;
25915;SDS011;13719;48.188;11.618;2024-03-17T09:42:13;2.67;;;1.70;;
25915;SDS011;13719;48.188;11.618;2024-03-17T09:44:43;1.98;;;1.50;;
25915;SDS011;13719;48.188;11.618;2024-03-17T09:47:16;1.48;;;1.38;;
25915;SDS011;13719;48.188;11.618;2024-03-17T09:49:45;2.53;;;1.63;;
25915;SDS011;13719;48.188;11.618;2024-03-17T09:52:15;4.25;;;1.70;;
25915;SDS011;13719;48.188;11.618;2024-03-17T09:54:45;1.73;;;1.50;;
25915;SDS011;13719;48.188;11.618;2024-03-17T09:57:14;1.60;;;1.30;;
25915;SDS011;13719;48.188;11.618;2024-03-17T09:59:43;1.77;;;1.50;;
25915;SDS011;13719;48.188;11.618;2024-03-17T10:02:18;2.30;;;1.65;;
25915;SDS011;13719;48.188;11.618;2024-03-17T10:04:45;1.90;;;1.40;;
25915;SDS011;13719;48.188;11.618;2024-03-17T10:07:13;1.48;;;1.17;;
25915;SDS011;13719;48.188;11.618;2024-03-17T10:09:41;2.30;;;1.10;;
25915;SDS011;13719;48.188;11.618;2024-03-17T10:12:25;2.35;;;1.30;;
25915;SDS011;13719;48.188;11.618;2024-03-17T10:14:58;2.10;;;1.17;;
25915;SDS011;13719;48.188;11.618;2024-03-17T10:17:31;3.08;;;1.25;;
25915;SDS011;13719;48.188;11.618;2024-03-17T10:20:11;1.63;;;1.38;;
25915;SDS011;13719;48.188;11.618;2024-03-17T10:22:41;1.95;;;1.30;;
25915;SDS011;13719;48.188;11.618;2024-03-17T10:25:09;1.35;;;1.00;;
25915;SDS011;13719;48.188;11.618;2024-03-17T10:27:42;1.35;;;1.00;;
25915;SDS011;13719;48.188;11.618;2024-03-17T10:30:13;1.55;;;1.00;;
25915;SDS011;13719;48.188;11.618;2024-03-17T10:32:46;1.00;;;0.90;;
25915;SDS011;13719;48.188;11.618;2024-03-17T10:35:25;0.95;;;0.85;;
25915;SDS011;13719;48.188;11.618;2024-03-17T10:37:53;1.30;;;1.10;;
25915;SDS011;13719;48.188;11.618;2024-03-17T10:40:21;1.65;;;1.08;;
25915;SDS011;13719;48.188;11.618;2024-03-17T10:42:49;3.75;;;1.08;;
25915;SDS011;13719;48.188;11.618;2024-03-17T10:45:16;1.23;;;0.98;;
25915;SDS011;13719;48.188;11.618;2024-03-17T10:47:46;1.17;;;0.98;;
25915;SDS011;13719;48.188;11.618;2024-03-17T10:50:16;2.20;;;1.10;;
25915;SDS011;13719;48.188;11.618;2024-03-17T10:52:44;1.42;;;0.90;;
25915;SDS011;13719;48.188;11.618;2024-03-17T10:55:22;2.00;;;0.95;;
25915;SDS011;13719;48.188;11.618;2024-03-17T11:00:17;2.65;;;0.98;;
25915;SDS011;13719;48.188;11.618;2024-03-17T11:02:49;4.25;;;0.70;;
25915;SDS011;13719;48.188;11.618;2024-03-17T11:05:18;1.98;;;1.02;;
25915;SDS011;13719;48.188;11.618;2024-03-17T11:07:46;1.23;;;0.93;;
25915;SDS011;13719;48.188;11.618;2024-03-17T11:10:15;0.98;;;0.80;;
25915;SDS011;13719;48.188;11.618;2024-03-17T11:12:44;0.85;;;0.80;;
25915;SDS011;13719;48.188;11.618;2024-03-17T11:20:57;1.75;;;1.00;;
25915;SDS011;13719;48.188;11.618;2024-03-17T11:23:28;0.80;;;0.80;;
25915;SDS011;13719;48.188;11.618;2024-03-17T11:25:56;2.63;;;0.85;;
25915;SDS011;13719;48.188;11.618;2024-03-17T11:33:52;0.70;;;0.70;;
25915;SDS011;13719;48.188;11.618;2024-03-17T11:36:31;1.73;;;0.77;;
25915;SDS011;13719;48.188;11.618;2024-03-17T11:39:02;1.33;;;0.70;;
25915;SDS011;13719;48.188;11.618;2024-03-17T11:41:40;1.55;;;0.73;;
25915;SDS011;13719;48.188;11.618;2024-03-17T11:44:15;1.40;;;0.80;;
25915;SDS011;13719;48.188;11.618;2024-03-17T11:46:43;1.13;;;0.65;;
25915;SDS011;13719;48.188;11.618;2024-03-17T11:49:16;0.70;;;0.70;;
25915;SDS011;13719;48.188;11.618;2024-03-17T11:51:44;1.60;;;0.80;;
25915;SDS011;13719;48.188;11.618;2024-03-17T11:54:13;0.98;;;0.80;;
25915;SDS011;13719;48.188;11.618;2024-03-17T11:56:44;4.47;;;1.10;;
25915;SDS011;13719;48.188;11.618;2024-03-17T11:59:12;1.30;;;0.60;;
25915;SDS011;13719;48.188;11.618;2024-03-17T12:01:39;2.17;;;0.95;;
25915;SDS011;13719;48.188;11.618;2024-03-17T12:04:06;1.80;;;0.82;;
25915;SDS011;13719;48.188;11.618;2024-03-17T12:06:33;1.55;;;0.77;;
25915;SDS011;13719;48.188;11.618;2024-03-17T12:09:13;2.42;;;1.00;;
25915;SDS011;13719;48.188;11.618;2024-03-17T12:11:45;2.08;;;0.82;;
25915;SDS011;13719;48.188;11.618;2024-03-17T12:14:14;1.58;;;0.90;;
25915;SDS011;13719;48.188;11.618;2024-03-17T12:16:51;1.23;;;0.82;;
25915;SDS011;13719;48.188;11.618;2024-03-17T12:19:18;1.70;;;1.05;;
25915;SDS011;13719;48.188;11.618;2024-03-17T12:21:47;1.50;;;0.80;;
25915;SDS011;13719;48.188;11.618;2024-03-17T12:24:16;2.22;;;0.80;;
25915;SDS011;13719;48.188;11.618;2024-03-17T12:26:44;3.70;;;0.88;;
25915;SDS011;13719;48.188;11.618;2024-03-17T12:29:22;0.90;;;0.70;;
25915;SDS011;13719;48.188;11.618;2024-03-17T12:31:50;0.90;;;0.65;;
25915;SDS011;13719;48.188;11.618;2024-03-17T12:34:17;1.58;;;0.70;;
25915;SDS011;13719;48.188;11.618;2024-03-17T12:36:45;2.33;;;0.70;;
25915;SDS011;13719;48.188;11.618;2024-03-17T12:39:16;1.20;;;0.70;;
25915;SDS011;13719;48.188;11.618;2024-03-17T12:41:45;2.05;;;0.90;;
25915;SDS011;13719;48.188;11.618;2024-03-17T12:44:21;1.45;;;0.70;;
25915;SDS011;13719;48.188;11.618;2024-03-17T12:46:54;4.15;;;0.80;;
25915;SDS011;13719;48.188;11.618;2024-03-17T12:49:20;1.73;;;0.70;;
25915;SDS011;13719;48.188;11.618;2024-03-17T12:51:50;1.88;;;0.77;;
25915;SDS011;13719;48.188;11.618;2024-03-17T12:54:19;2.38;;;0.80;;
25915;SDS011;13719;48.188;11.618;2024-03-17T12:56:46;1.42;;;0.68;;
25915;SDS011;13719;48.188;11.618;2024-03-17T12:59:38;0.77;;;0.68;;
25915;SDS011;13719;48.188;11.618;2024-03-17T13:02:23;1.48;;;0.65;;
25915;SDS011;13719;48.188;11.618;2024-03-17T13:07:39;2.63;;;0.70;;
25915;SDS011;13719;48.188;11.618;2024-03-17T13:10:08;1.50;;;0.80;;
25915;SDS011;13719;48.188;11.618;2024-03-17T13:12:36;2.08;;;0.70;;
25915;SDS011;13719;48.188;11.618;2024-03-17T13:15:04;1.52;;;0.82;;
25915;SDS011;13719;48.188;11.618;2024-03-17T13:17:32;1.60;;;0.80;;
25915;SDS011;13719;48.188;11.618;2024-03-17T13:20:00;1.73;;;0.70;;
25915;SDS011;13719;48.188;11.618;2024-03-17T13:22:27;1.02;;;0.70;;
25915;SDS011;13719;48.188;11.618;2024-03-17T13:24:55;0.57;;;0.55;;
25915;SDS011;13719;48.188;11.618;2024-03-17T13:27:24;1.23;;;0.63;;
25915;SDS011;13719;48.188;11.618;2024-03-17T13:29:51;1.30;;;0.70;;
25915;SDS011;13719;48.188;11.618;2024-03-17T13:32:19;1.70;;;0.73;;
25915;SDS011;13719;48.188;11.618;2024-03-17T13:34:46;1.00;;;0.70;;
25915;SDS011;13719;48.188;11.618;2024-03-17T13:37:15;1.00;;;0.85;;
25915;SDS011;13719;48.188;11.618;2024-03-17T13:39:43;3.33;;;1.02;;
25915;SDS011;13719;48.188;11.618;2024-03-17T13:42:11;0.82;;;0.55;;
25915;SDS011;13719;48.188;11.618;2024-03-17T13:44:40;0.65;;;0.60;;
25915;SDS011;13719;48.188;11.618;2024-03-17T13:47:07;2.25;;;0.68;;
25915;SDS011;13719;48.188;11.618;2024-03-17T13:49:35;0.52;;;0.50;;
25915;SDS011;13719;48.188;11.618;2024-03-17T13:52:02;0.88;;;0.75;;
25915;SDS011;13719;48.188;11.618;2024-03-17T13:54:30;0.98;;;0.60;;
25915;SDS011;13719;48.188;11.618;2024-03-17T13:56:58;2.33;;;0.85;;
25915;SDS011;13719;48.188;11.618;2024-03-17T13:59:27;0.90;;;0.50;;
25915;SDS011;13719;48.188;11.618;2024-03-17T14:01:56;1.05;;;0.63;;
25915;SDS011;13719;48.188;11.618;2024-03-17T14:04:23;1.08;;;0.90;;
25915;SDS011;13719;48.188;11.618;2024-03-17T14:06:51;1.77;;;0.75;;
25915;SDS011;13719;48.188;11.618;2024-03-17T14:09:18;1.52;;;0.70;;
25915;SDS011;13719;48.188;11.618;2024-03-17T14:11:48;1.42;;;0.65;;
25915;SDS011;13719;48.188;11.618;2024-03-17T14:14:15;2.33;;;0.90;;
25915;SDS011;13719;48.188;11.618;2024-03-17T14:16:43;1.50;;;0.70;;
25915;SDS011;13719;48.188;11.618;2024-03-17T14:19:12;1.60;;;0.80;;
25915;SDS011;13719;48.188;11.618;2024-03-17T14:21:40;1.55;;;0.80;;
25915;SDS011;13719;48.188;11.618;2024-03-17T14:24:07;1.75;;;0.65;;
25915;SDS011;13719;48.188;11.618;2024-03-17T14:26:35;1.00;;;0.60;;
25915;SDS011;13719;48.188;11.618;2024-03-17T14:29:03;1.25;;;0.60;;
25915;SDS011;13719;48.188;11.618;2024-03-17T14:31:31;0.60;;;0.60;;
25915;SDS011;13719;48.188;11.618;2024-03-17T14:34:00;1.95;;;1.13;;
25915;SDS011;13719;48.188;11.618;2024-03-17T14:36:31;1.90;;;0.90;;
25915;SDS011;13719;48.188;11.618;2024-03-17T14:38:59;1.75;;;0.82;;
25915;SDS011;13719;48.188;11.618;2024-03-17T14:41:29;2.58;;;0.88;;
25915;SDS011;13719;48.188;11.618;2024-03-17T14:43:57;1.52;;;0.77;;
25915;SDS011;13719;48.188;11.618;2024-03-17T14:46:25;1.20;;;0.70;;
25915;SDS011;13719;48.188;11.618;2024-03-17T14:48:53;4.07;;;0.90;;
25915;SDS011;13719;48.188;11.618;2024-03-17T14:51:21;2.05;;;0.80;;
25915;SDS011;13719;48.188;11.618;2024-03-17T14:53:50;5.75;;;3.40;;
25915;SDS011;13719;48.188;11.618;2024-03-17T14:56:17;5.13;;;2.20;;
25915;SDS011;13719;48.188;11.618;2024-03-17T14:58:45;1.08;;;0.82;;